createdAt,value
2018-11-20T00:01:41.646Z,19.50
2018-11-20T00:04:41.733Z,17.70
2018-11-20T00:07:49.440Z,19.07
2018-11-20T00:10:41.805Z,18.23
2018-11-20T00:13:34.565Z,18.90
2018-11-20T00:16:30.902Z,17.93
2018-11-20T00:19:23.912Z,19.97
2018-11-20T00:22:00.229Z,18.50
2018-11-20T00:25:09.729Z,19.60
2018-11-20T00:28:01.535Z,19.50
2018-11-20T00:31:00.689Z,18.10
2018-11-20T00:33:34.328Z,18.63
2018-11-20T00:36:29.793Z,18.20
2018-11-20T00:39:20.769Z,18.97
2018-11-20T00:42:09.910Z,19.40
2018-11-20T00:45:05.356Z,18.30
2018-11-20T00:47:56.584Z,18.30
2018-11-20T00:50:58.500Z,18.67
2018-11-20T00:53:54.948Z,19.17
2018-11-20T00:57:08.647Z,18.47
2018-11-20T00:59:56.726Z,19.07
2018-11-20T01:02:52.713Z,19.07
2018-11-20T01:05:40.192Z,19.67
2018-11-20T01:08:28.918Z,18.50
2018-11-20T01:11:03.441Z,19.57
2018-11-20T01:16:46.692Z,18.70
2018-11-20T01:22:32.249Z,20.10
2018-11-20T01:25:29.244Z,18.03
2018-11-20T01:28:14.105Z,19.13
2018-11-20T01:31:00.733Z,19.30
2018-11-20T01:33:53.676Z,18.83
2018-11-20T01:36:44.270Z,18.07
2018-11-20T01:39:34.951Z,18.60
2018-11-20T01:42:26.954Z,19.47
2018-11-20T01:45:19.952Z,19.00
2018-11-20T01:48:13.127Z,18.63
2018-11-20T01:51:08.946Z,19.67
2018-11-20T01:54:02.236Z,18.80
2018-11-20T01:56:56.382Z,19.17
2018-11-20T01:59:47.075Z,19.70
2018-11-20T02:02:40.334Z,19.40
2018-11-20T02:08:26.270Z,19.83
2018-11-20T02:14:17.640Z,18.73
2018-11-20T02:16:51.155Z,19.47
2018-11-20T02:19:47.400Z,18.97
2018-11-20T02:22:42.887Z,18.73
2018-11-20T02:25:37.895Z,20.37
2018-11-20T02:28:21.817Z,20.07
2018-11-20T02:31:14.378Z,19.93
2018-11-20T02:34:06.193Z,18.80
2018-11-20T02:37:00.820Z,17.67
2018-11-20T02:39:34.043Z,19.00
2018-11-20T02:42:25.549Z,18.13
2018-11-20T02:45:19.000Z,20.07
2018-11-20T02:48:15.794Z,19.10
2018-11-20T02:51:11.296Z,20.17
2018-11-20T02:54:13.509Z,20.40
2018-11-20T02:57:04.407Z,19.07
2018-11-20T02:59:37.795Z,20.07
2018-11-20T03:02:37.261Z,19.27
2018-11-20T03:05:47.660Z,19.63
2018-11-20T03:08:33.226Z,18.70
2018-11-20T03:11:38.144Z,18.07
2018-11-20T03:14:31.861Z,18.47
2018-11-20T03:17:42.782Z,19.20
2018-11-20T03:20:24.078Z,19.23
2018-11-20T03:23:22.584Z,19.27
2018-11-20T03:26:16.790Z,18.90
2018-11-20T03:29:23.261Z,18.07
2018-11-20T03:32:09.868Z,19.03
2018-11-20T03:35:01.070Z,19.73
2018-11-20T03:37:52.302Z,19.87
2018-11-20T03:40:43.075Z,20.07
2018-11-20T03:43:34.024Z,19.33
2018-11-20T03:46:32.991Z,19.77
2018-11-20T03:49:22.487Z,19.77
2018-11-20T03:52:18.437Z,19.23
2018-11-20T03:55:10.383Z,18.43
2018-11-20T03:58:05.228Z,20.33
2018-11-20T04:01:06.368Z,20.73
2018-11-20T04:04:02.126Z,20.27
2018-11-20T04:06:53.153Z,18.97
2018-11-20T04:09:40.039Z,21.00
2018-11-20T04:12:28.666Z,19.50
2018-11-20T04:15:33.007Z,20.23
2018-11-20T04:18:26.161Z,21.70
2018-11-20T04:21:24.489Z,20.47
2018-11-20T04:24:30.041Z,21.47
2018-11-20T04:27:14.011Z,20.37
2018-11-20T04:29:44.672Z,21.00
2018-11-20T04:32:23.430Z,20.63
2018-11-20T04:35:18.025Z,21.13
2018-11-20T04:37:48.983Z,20.63
2018-11-20T04:40:36.381Z,21.60
2018-11-20T04:43:25.881Z,21.40
2018-11-20T04:46:19.185Z,21.30
2018-11-20T04:49:20.862Z,19.33
2018-11-20T04:52:04.569Z,21.70
2018-11-20T04:55:09.264Z,21.47
2018-11-20T04:57:58.750Z,20.50
2018-11-20T05:00:29.863Z,21.57
2018-11-20T05:03:22.002Z,20.87
2018-11-20T05:05:52.910Z,21.87
2018-11-20T05:08:37.708Z,21.33
2018-11-20T05:11:05.949Z,21.00
2018-11-20T05:13:57.209Z,21.97
2018-11-20T05:16:27.903Z,21.47
2018-11-20T05:19:20.775Z,20.73
2018-11-20T05:21:51.852Z,21.73
2018-11-20T05:24:44.301Z,21.70
2018-11-20T05:27:15.104Z,20.03
2018-11-20T05:30:16.717Z,21.43
2018-11-20T05:32:45.065Z,21.07
2018-11-20T05:35:40.095Z,20.93
2018-11-20T05:38:10.908Z,20.60
2018-11-20T05:41:07.259Z,21.17
2018-11-20T05:46:30.725Z,18.87
2018-11-20T05:49:01.868Z,20.17
2018-11-20T05:51:54.948Z,19.70
2018-11-20T05:57:23.160Z,21.67
2018-11-20T05:59:53.797Z,20.73
2018-11-20T06:02:36.374Z,18.80
2018-11-20T06:07:36.691Z,20.63
2018-11-20T06:07:59.143Z,19.23
2018-11-20T06:10:28.408Z,19.63
2018-11-20T06:13:19.567Z,19.80
2018-11-20T06:18:45.512Z,19.10
2018-11-20T06:21:18.784Z,18.40
2018-11-20T06:24:21.245Z,19.07
2018-11-20T06:26:52.031Z,18.40
2018-11-20T06:29:42.951Z,18.17
2018-11-20T06:32:13.746Z,18.90
2018-11-20T06:35:04.723Z,27.43
2018-11-20T06:37:33.994Z,18.33
2018-11-20T06:40:29.418Z,19.33
2018-11-20T06:43:00.202Z,17.23
2018-11-20T06:45:48.270Z,17.77
2018-11-20T06:48:18.882Z,17.63
2018-11-20T06:51:14.191Z,16.63
2018-11-20T06:53:42.133Z,16.57
2018-11-20T06:56:32.970Z,17.10
2018-11-20T06:59:03.523Z,17.53
2018-11-20T07:01:55.684Z,15.80
2018-11-20T07:05:06.975Z,15.97
2018-11-20T07:08:00.340Z,15.87
2018-11-20T07:10:46.393Z,14.70
2018-11-20T07:13:35.209Z,15.30
2018-11-20T07:16:48.177Z,14.77
2018-11-20T07:19:23.445Z,15.67
2018-11-20T07:22:12.690Z,14.93
2018-11-20T07:25:05.413Z,15.37
2018-11-20T07:27:54.454Z,15.13
2018-11-20T07:30:46.200Z,15.20
2018-11-20T07:33:48.831Z,14.77
2018-11-20T07:36:47.880Z,14.97
2018-11-20T07:39:56.687Z,13.93
2018-11-20T07:42:55.330Z,14.23
2018-11-20T07:45:43.189Z,14.27
2018-11-20T07:48:54.010Z,14.10
2018-11-20T07:51:43.373Z,14.50
2018-11-20T07:54:36.446Z,14.50
2018-11-20T07:57:25.337Z,14.73
2018-11-20T08:00:16.741Z,14.50
2018-11-20T08:03:10.619Z,13.97
2018-11-20T08:06:20.997Z,14.07
2018-11-20T08:09:11.320Z,13.77
2018-11-20T08:12:10.340Z,14.20
2018-11-20T08:15:02.332Z,15.10
2018-11-20T08:17:54.766Z,14.50
2018-11-20T08:20:44.139Z,14.47
2018-11-20T08:23:37.277Z,14.30
2018-11-20T08:26:11.271Z,14.80
2018-11-20T08:29:00.352Z,15.17
2018-11-20T08:31:31.052Z,14.80
2018-11-20T08:34:36.622Z,14.97
2018-11-20T08:37:07.385Z,14.80
2018-11-20T08:39:59.319Z,14.93
2018-11-20T08:42:28.338Z,14.93
2018-11-20T08:50:56.369Z,15.10
2018-11-20T08:53:32.032Z,15.57
2018-11-20T08:56:27.186Z,16.10
2018-11-20T08:58:57.877Z,15.83
2018-11-20T09:01:35.786Z,15.60
2018-11-20T09:04:06.234Z,16.97
2018-11-20T09:06:54.442Z,16.60
2018-11-20T09:09:45.959Z,16.63
2018-11-20T09:12:28.945Z,16.40
2018-11-20T09:15:20.563Z,17.27
2018-11-20T09:21:26.352Z,17.50
2018-11-20T09:23:56.874Z,18.10
2018-11-20T09:26:47.287Z,19.20
2018-11-20T09:29:38.175Z,19.67
2018-11-20T09:32:30.550Z,19.23
2018-11-20T09:35:21.596Z,17.53
2018-11-20T09:38:16.709Z,19.03
2018-11-20T09:41:13.042Z,17.73
2018-11-20T09:44:02.757Z,16.47
2018-11-20T09:46:48.422Z,17.73
2018-11-20T09:49:44.967Z,16.30
2018-11-20T09:52:37.081Z,14.93
2018-11-20T09:55:26.853Z,15.27
2018-11-20T10:00:56.747Z,14.80
2018-11-20T10:03:53.526Z,13.27
2018-11-20T10:06:50.812Z,13.07
2018-11-20T10:09:21.690Z,11.53
2018-11-20T10:12:10.797Z,9.27
2018-11-20T10:15:03.226Z,9.30
2018-11-20T10:17:36.771Z,9.20
2018-11-20T10:20:28.079Z,8.40
2018-11-20T10:23:40.345Z,7.70
2018-11-20T10:26:11.134Z,8.80
2018-11-20T10:28:44.942Z,8.50
2018-11-20T10:31:42.795Z,11.40
2018-11-20T10:34:40.010Z,8.47
2018-11-20T10:37:13.492Z,7.57
2018-11-20T10:40:13.890Z,7.70
2018-11-20T10:42:47.937Z,7.80
2018-11-20T10:45:36.898Z,8.60
2018-11-20T10:48:28.119Z,7.77
2018-11-20T10:51:17.315Z,7.87
2018-11-20T10:54:20.262Z,8.10
2018-11-20T10:57:08.305Z,7.47
2018-11-20T11:00:07.472Z,7.90
2018-11-20T11:02:56.912Z,8.27
2018-11-20T11:05:27.505Z,7.83
2018-11-20T11:08:20.428Z,8.20
2018-11-20T11:10:51.059Z,8.07
2018-11-20T11:13:42.718Z,7.53
2018-11-20T11:19:20.620Z,8.23
2018-11-20T11:24:51.170Z,8.10
2018-11-20T11:30:18.169Z,7.70
2018-11-20T11:33:04.032Z,8.13
2018-11-20T11:35:57.188Z,8.43
2018-11-20T11:38:48.572Z,8.30
2018-11-20T11:41:47.560Z,8.27
2018-11-20T11:44:44.244Z,7.63
2018-11-20T11:47:49.851Z,7.97
2018-11-20T11:50:38.952Z,7.90
2018-11-20T11:53:37.145Z,7.67
2018-11-20T11:56:26.622Z,7.70
2018-11-20T11:59:15.487Z,8.80
2018-11-20T12:04:46.387Z,8.33
2018-11-20T12:07:20.216Z,8.33
2018-11-20T12:10:04.077Z,7.50
2018-11-20T12:12:59.293Z,8.17
2018-11-20T12:15:32.733Z,7.80
2018-11-20T12:18:30.921Z,8.00
2018-11-20T12:21:24.262Z,7.97
2018-11-20T12:24:27.331Z,7.57
2018-11-20T12:27:08.678Z,7.87
2018-11-20T12:30:02.877Z,8.00
2018-11-20T12:33:00.190Z,8.50
2018-11-20T12:35:36.177Z,8.30
2018-11-20T12:38:17.267Z,7.90
2018-11-20T12:40:45.100Z,7.97
2018-11-20T12:43:38.033Z,7.80
2018-11-20T12:46:07.366Z,9.03
2018-11-20T12:48:58.869Z,8.60
2018-11-20T12:51:29.470Z,8.40
2018-11-20T12:54:21.049Z,8.60
2018-11-20T12:56:51.562Z,8.93
2018-11-20T13:00:02.889Z,9.33
2018-11-20T13:02:33.479Z,9.30
2018-11-20T13:05:32.676Z,8.97
2018-11-20T13:08:01.757Z,9.37
2018-11-20T13:10:51.439Z,9.17
2018-11-20T13:13:42.608Z,10.63
2018-11-20T13:16:15.850Z,10.03
2018-11-20T13:19:03.413Z,9.60
2018-11-20T13:21:54.378Z,10.30
2018-11-20T13:24:40.919Z,10.50
2018-11-20T13:27:35.755Z,10.67
2018-11-20T13:30:34.803Z,10.47
2018-11-20T13:33:30.051Z,10.90
2018-11-20T13:36:18.479Z,10.10
2018-11-20T13:39:09.816Z,10.73
2018-11-20T13:42:01.774Z,11.03
2018-11-20T13:44:53.245Z,10.80
2018-11-20T13:47:57.500Z,11.13
2018-11-20T13:50:49.799Z,11.07
2018-11-20T13:53:53.085Z,11.20
2018-11-20T13:56:57.046Z,10.90
2018-11-20T13:59:39.886Z,11.57
2018-11-20T14:02:31.210Z,10.93
2018-11-20T14:08:02.130Z,11.87
2018-11-20T14:10:56.923Z,11.03
2018-11-20T14:13:41.342Z,11.37
2018-11-20T14:16:40.789Z,11.70
2018-11-20T14:19:27.054Z,10.77
2018-11-20T14:22:23.753Z,11.13
2018-11-20T14:25:19.585Z,20.27
2018-11-20T14:28:08.757Z,11.40
2018-11-20T14:30:51.608Z,10.97
2018-11-20T14:33:32.973Z,11.33
2018-11-20T14:36:25.000Z,10.77
2018-11-20T14:39:28.915Z,12.43
2018-11-20T14:42:33.854Z,10.87
2018-11-20T14:45:38.116Z,11.40
2018-11-20T14:48:34.248Z,11.53
2018-11-20T14:51:28.083Z,11.07
2018-11-20T14:54:20.825Z,10.63
2018-11-20T14:57:10.423Z,10.93
2018-11-20T15:00:05.438Z,11.37
2018-11-20T15:03:11.270Z,11.00
2018-11-20T15:06:12.409Z,10.47
2018-11-20T15:09:01.091Z,11.27
2018-11-20T15:12:02.951Z,11.50
2018-11-20T15:14:57.183Z,11.23
2018-11-20T15:18:08.450Z,11.17
2018-11-20T15:21:02.936Z,10.90
2018-11-20T15:23:49.598Z,11.40
2018-11-20T15:26:40.412Z,11.40
2018-11-20T15:29:33.799Z,11.13
2018-11-20T15:32:24.830Z,10.80
2018-11-20T15:35:16.052Z,10.70
2018-11-20T15:38:00.894Z,11.27
2018-11-20T15:41:08.688Z,11.07
2018-11-20T15:44:05.361Z,10.47
2018-11-20T15:46:59.028Z,11.50
2018-11-20T15:49:48.239Z,10.47
2018-11-20T15:52:46.860Z,10.97
2018-11-20T15:55:52.755Z,11.13
2018-11-20T15:58:51.232Z,10.87
2018-11-20T16:01:40.317Z,11.20
2018-11-20T16:04:32.265Z,11.53
2018-11-20T16:07:21.440Z,12.23
2018-11-20T16:10:23.301Z,10.70
2018-11-20T16:13:14.109Z,11.73
2018-11-20T16:16:05.056Z,12.37
2018-11-20T16:18:55.563Z,12.40
2018-11-20T16:21:57.585Z,11.83
2018-11-20T16:24:50.850Z,11.67
2018-11-20T16:27:43.850Z,12.90
2018-11-20T16:30:37.786Z,12.50
2018-11-20T16:33:31.633Z,11.97
2018-11-20T16:36:21.308Z,12.27
2018-11-20T16:39:12.099Z,14.30
2018-11-20T16:42:08.875Z,13.60
2018-11-20T16:45:05.388Z,12.83
2018-11-20T16:51:06.366Z,12.47
2018-11-20T16:53:56.103Z,13.27
2018-11-20T16:57:00.682Z,12.17
2018-11-20T16:59:34.649Z,12.33
2018-11-20T17:02:22.252Z,13.37
2018-11-20T17:05:18.315Z,13.50
2018-11-20T17:07:47.509Z,13.30
2018-11-20T17:10:53.735Z,13.43
2018-11-20T17:13:49.949Z,13.73
2018-11-20T17:16:40.168Z,14.30
2018-11-20T17:19:31.592Z,13.57
2018-11-20T17:22:21.090Z,13.53
2018-11-20T17:25:12.750Z,14.10
2018-11-20T17:28:02.634Z,14.73
2018-11-20T17:31:10.718Z,14.40
2018-11-20T17:34:07.709Z,15.33
2018-11-20T17:37:12.339Z,14.53
2018-11-20T17:40:00.936Z,14.53
2018-11-20T17:43:06.234Z,15.13
2018-11-20T17:45:56.323Z,13.53
2018-11-20T17:48:47.952Z,14.37
2018-11-20T17:51:37.199Z,14.37
2018-11-20T17:54:33.025Z,14.40
2018-11-20T17:57:26.408Z,14.90
2018-11-20T18:00:25.551Z,14.67
2018-11-20T18:03:22.128Z,15.43
2018-11-20T18:06:14.762Z,15.83
2018-11-20T18:09:05.549Z,15.33
2018-11-20T18:11:56.242Z,14.87
2018-11-20T18:15:02.296Z,16.00
2018-11-20T18:17:55.356Z,15.73
2018-11-20T18:20:41.861Z,15.23
2018-11-20T18:23:30.594Z,16.00
2018-11-20T18:26:25.923Z,16.23
2018-11-20T18:29:18.174Z,16.00
2018-11-20T18:32:14.501Z,16.33
2018-11-20T18:35:06.118Z,16.17
2018-11-20T18:38:12.518Z,16.23
2018-11-20T18:41:03.422Z,16.90
2018-11-20T18:43:52.525Z,17.07
2018-11-20T18:46:44.128Z,15.07
2018-11-20T18:49:29.959Z,16.87
2018-11-20T18:52:31.467Z,15.93
2018-11-20T18:55:20.370Z,16.50
2018-11-20T18:58:18.881Z,16.13
2018-11-20T19:01:16.705Z,16.20
2018-11-20T19:04:25.391Z,16.83
2018-11-20T19:07:52.882Z,16.33
2018-11-20T19:10:39.978Z,16.30
2018-11-20T19:13:34.543Z,17.10
2018-11-20T19:16:22.894Z,15.93
2018-11-20T19:19:30.562Z,16.37
2018-11-20T19:22:31.172Z,16.53
2018-11-20T19:28:35.373Z,16.80
2018-11-20T19:31:41.417Z,16.07
2018-11-20T19:34:36.262Z,15.53
2018-11-20T19:37:36.798Z,15.80
2018-11-20T19:40:39.681Z,15.83
2018-11-20T19:43:32.076Z,14.63
2018-11-20T19:46:35.424Z,15.00
2018-11-20T19:49:36.080Z,15.37
2018-11-20T19:52:36.222Z,16.40
2018-11-20T19:58:46.085Z,15.10
2018-11-20T20:01:46.722Z,14.70
2018-11-20T20:04:50.384Z,15.60
2018-11-20T20:07:54.738Z,14.63
2018-11-20T20:13:59.193Z,14.70
2018-11-20T20:16:59.915Z,15.37
2018-11-20T20:20:00.097Z,15.63
2018-11-20T20:23:00.566Z,15.70
2018-11-20T20:25:50.238Z,15.20
2018-11-20T20:28:50.211Z,15.63
2018-11-20T20:31:51.186Z,15.63
2018-11-20T20:34:51.851Z,15.17
2018-11-20T20:37:48.369Z,14.97
2018-11-20T20:40:48.931Z,15.17
2018-11-20T20:43:50.446Z,16.07
2018-11-20T20:50:14.406Z,15.93
2018-11-20T20:53:14.938Z,17.00
2018-11-20T20:56:16.513Z,15.43
2018-11-20T20:59:22.814Z,17.40
2018-11-20T21:02:22.942Z,16.33
2018-11-20T21:05:26.615Z,16.63
2018-11-20T21:08:27.235Z,15.60
2018-11-20T21:11:27.616Z,15.53
2018-11-20T21:14:28.677Z,16.13
2018-11-20T21:20:33.967Z,17.03
2018-11-20T21:23:34.590Z,16.70
2018-11-20T21:26:35.123Z,17.30
2018-11-20T21:29:36.064Z,17.10
2018-11-20T21:32:40.284Z,16.77
2018-11-20T21:35:46.598Z,17.30
2018-11-20T21:38:42.115Z,16.67
2018-11-20T21:41:42.778Z,16.60
2018-11-20T21:44:42.833Z,16.17
2018-11-20T21:47:44.745Z,16.03
2018-11-20T21:50:33.421Z,16.40
2018-11-20T21:53:41.161Z,19.37
2018-11-20T21:56:42.038Z,17.57
2018-11-20T21:59:42.577Z,17.17
2018-11-20T22:02:45.999Z,17.90
2018-11-20T22:05:48.975Z,16.53
2018-11-20T22:08:49.968Z,16.20
2018-11-20T22:11:50.374Z,18.23
2018-11-20T22:14:50.594Z,17.43
2018-11-20T22:17:51.175Z,17.13
2018-11-20T22:20:51.649Z,17.20
2018-11-20T22:23:51.945Z,16.23
2018-11-20T22:26:52.255Z,17.23
2018-11-20T22:29:59.355Z,17.70
2018-11-20T22:33:05.324Z,17.67
2018-11-20T22:36:06.244Z,18.33
2018-11-20T22:39:06.366Z,17.40
2018-11-20T22:42:06.621Z,16.67
2018-11-20T22:45:07.003Z,17.07
2018-11-20T22:48:13.334Z,17.50
2018-11-20T22:51:16.437Z,17.10
2018-11-20T22:54:23.198Z,16.97
2018-11-20T22:57:26.210Z,17.43
2018-11-20T23:00:32.442Z,16.73
2018-11-20T23:03:32.515Z,16.97
2018-11-20T23:06:28.005Z,18.73
2018-11-20T23:09:10.933Z,18.83
2018-11-20T23:11:52.825Z,18.30
2018-11-20T23:14:34.480Z,18.37
2018-11-20T23:17:16.171Z,19.23
2018-11-20T23:19:57.999Z,17.13
2018-11-20T23:22:40.081Z,18.67
2018-11-20T23:25:21.511Z,17.80
2018-11-20T23:28:02.940Z,16.80
2018-11-20T23:30:44.468Z,16.70
2018-11-20T23:33:26.028Z,17.63
2018-11-20T23:36:08.312Z,15.90
2018-11-20T23:38:49.807Z,16.33
2018-11-20T23:41:31.313Z,16.73
2018-11-20T23:44:13.028Z,17.20
2018-11-20T23:46:54.741Z,17.13
2018-11-20T23:49:36.345Z,17.20
2018-11-20T23:52:18.026Z,17.20
2018-11-20T23:54:59.482Z,17.53
2018-11-20T23:57:40.864Z,17.23
